Terminal Aerodrome Forecast
Issued by NWS Knoxville/Tri Cities, TN

Home | Current Version | Previous Version | Text Only | Print | Product List | Glossary On
Versions: 1 2 3 4 5 6 7 8 9 10 11 12 13 14 15 16 17 18 19 20 21 22 23 24 25 26 27 28 29 30
000
FTUS44 KMRX 281731
TAFCHA
TAF
KCHA 281731Z 2818/2918 20012G18KT P6SM VCSH BKN030 BKN045
     FM282000 21013KT P6SM VCTS BKN035CB
     FM282200 22010KT 4SM -TSRA BR OVC035CB
     FM290000 21005KT P6SM VCSH OVC025
     FM290400 20003KT P6SM BKN020
     FM291500 23006KT P6SM BKN025=

USA.gov is the U.S. government's official web portal to all federal, state and local government web resources and services.